Time;durP1;ratioP1;P1;durP2;ratioP2;P2;SDS_P1;SDS_P2;PMS_P1;PMS_P2;Temp;Humidity;BMP_temperature;BMP_pressure;BME280_temperature;BME280_humidity;BME280_pressure;Samples;Min_cycle;Max_cycle;Signal;HPM_P1;HPM_P2
2023/01/25 00:01:05;;;;;;;22.47;15.53;;;2.00;99.90;;;;;;5049822;28;20471;-61
2023/01/25 00:03:33;;;;;;;23.03;15.93;;;2.00;99.90;;;;;;5044441;28;20816;-61
2023/01/25 00:06:02;;;;;;;23.43;15.60;;;1.90;99.90;;;;;;5044515;28;20554;-60
2023/01/25 00:08:30;;;;;;;21.93;15.27;;;1.90;99.90;;;;;;5052669;28;20491;-61
2023/01/25 00:10:58;;;;;;;22.90;15.43;;;1.90;99.90;;;;;;5052563;28;20471;-61
2023/01/25 00:13:26;;;;;;;22.93;15.87;;;1.90;99.90;;;;;;5052628;28;20470;-61
2023/01/25 00:16:00;;;;;;;19.27;13.87;;;2.00;99.90;;;;;;5032594;28;20492;-61
2023/01/25 00:18:30;;;;;;;25.07;16.93;;;2.00;99.90;;;;;;5032660;28;20468;-61
2023/01/25 00:20:58;;;;;;;22.83;14.43;;;2.10;99.90;;;;;;5032472;28;20464;-61
2023/01/25 00:23:26;;;;;;;20.93;14.87;;;2.10;99.90;;;;;;5032377;28;20480;-60
2023/01/25 00:25:57;;;;;;;23.90;15.37;;;2.20;99.90;;;;;;5032827;28;20463;-60
2023/01/25 00:28:25;;;;;;;22.90;16.93;;;2.10;99.90;;;;;;5036686;28;20823;-61
2023/01/25 00:30:53;;;;;;;24.33;17.03;;;2.10;99.90;;;;;;5048319;28;20481;-61
2023/01/25 00:33:43;;;;;;;23.47;16.60;;;2.00;99.90;;;;;;5042438;28;20463;-61
2023/01/25 00:36:32;;;;;;;22.93;16.27;;;2.00;99.90;;;;;;5051913;28;20475;-61
2023/01/25 00:39:00;;;;;;;23.03;14.67;;;2.00;99.90;;;;;;5051049;28;20474;-61
2023/01/25 00:41:28;;;;;;;24.67;16.40;;;2.10;99.90;;;;;;5047563;28;20470;-61
2023/01/25 00:43:57;;;;;;;21.87;15.13;;;2.00;99.90;;;;;;5036547;28;20467;-61
2023/01/25 00:46:25;;;;;;;22.43;15.87;;;1.90;99.90;;;;;;5036127;28;20457;-61
2023/01/25 00:48:55;;;;;;;20.83;14.43;;;2.00;99.90;;;;;;5036020;28;21014;-61
2023/01/25 00:51:24;;;;;;;23.40;15.87;;;1.90;99.90;;;;;;5034894;28;20475;-61
2023/01/25 00:53:52;;;;;;;23.37;15.73;;;1.90;99.90;;;;;;5034756;28;20835;-61
2023/01/25 00:56:20;;;;;;;23.50;15.60;;;2.00;99.90;;;;;;5034657;28;20813;-61
2023/01/25 00:58:48;;;;;;;22.53;14.17;;;1.90;99.90;;;;;;5044200;28;20458;-61
2023/01/25 01:01:18;;;;;;;23.47;15.20;;;1.90;99.90;;;;;;5049280;28;20478;-61
2023/01/25 01:03:47;;;;;;;20.93;13.93;;;1.90;99.90;;;;;;5043849;28;20458;-61
2023/01/25 01:06:16;;;;;;;23.10;15.17;;;2.00;99.90;;;;;;5047079;28;20471;-61
2023/01/25 01:08:45;;;;;;;23.27;15.50;;;2.00;99.90;;;;;;5047517;28;20548;-61
2023/01/25 01:11:13;;;;;;;23.23;15.93;;;1.90;99.90;;;;;;5034547;28;20562;-61
2023/01/25 01:13:42;;;;;;;19.83;13.77;;;1.80;99.90;;;;;;5038098;28;20492;-61
2023/01/25 01:16:12;;;;;;;22.97;15.67;;;1.90;99.90;;;;;;5035948;28;20469;-60
2023/01/25 01:18:42;;;;;;;23.17;15.43;;;1.80;99.90;;;;;;5035380;28;20806;-61
2023/01/25 01:21:11;;;;;;;25.23;16.40;;;1.70;99.90;;;;;;5034397;28;20471;-60
2023/01/25 01:23:41;;;;;;;21.23;14.53;;;1.70;99.90;;;;;;5035360;28;20956;-60
2023/01/25 01:26:11;;;;;;;24.50;14.77;;;1.80;99.90;;;;;;5034179;28;20823;-61
2023/01/25 01:28:40;;;;;;;22.90;15.20;;;1.80;99.90;;;;;;5043118;28;20839;-61
2023/01/25 01:31:11;;;;;;;24.07;15.83;;;1.70;99.90;;;;;;5041903;28;20479;-61
2023/01/25 01:33:44;;;;;;;27.30;15.77;;;1.70;99.90;;;;;;5052167;28;20566;-61
2023/01/25 01:36:15;;;;;;;23.67;15.37;;;1.70;99.90;;;;;;5046195;28;20812;-61
2023/01/25 01:38:44;;;;;;;26.90;16.13;;;1.70;99.90;;;;;;5055023;28;20455;-61
2023/01/25 01:41:13;;;;;;;25.77;16.20;;;1.60;99.90;;;;;;5055398;28;20477;-61
2023/01/25 01:43:41;;;;;;;26.53;16.73;;;1.60;99.90;;;;;;5051704;28;20506;-61
2023/01/25 01:46:15;;;;;;;25.60;15.77;;;1.60;99.90;;;;;;5034061;28;20468;-61
2023/01/25 01:48:47;;;;;;;24.93;15.70;;;1.60;99.90;;;;;;5034910;28;20907;-61
2023/01/25 01:51:21;;;;;;;25.87;15.53;;;1.60;99.90;;;;;;5033208;28;20559;-61
2023/01/25 01:53:55;;;;;;;26.27;17.63;;;1.60;99.90;;;;;;5033614;28;20468;-61
2023/01/25 01:56:29;;;;;;;31.70;17.40;;;1.70;99.90;;;;;;5033664;28;20471;-61
2023/01/25 01:59:03;;;;;;;26.50;16.47;;;1.70;99.90;;;;;;5037409;28;20522;-61
2023/01/25 02:01:32;;;;;;;26.63;16.33;;;1.70;99.90;;;;;;5041220;28;20475;-61
2023/01/25 02:04:02;;;;;;;26.47;16.10;;;1.70;99.90;;;;;;5041714;28;20478;-61
2023/01/25 02:06:36;;;;;;;28.73;17.10;;;1.60;99.90;;;;;;5049101;28;20555;-61
2023/01/25 02:09:06;;;;;;;25.17;16.20;;;1.60;99.90;;;;;;5053306;28;20578;-61
2023/01/25 02:11:34;;;;;;;26.40;16.73;;;1.50;99.90;;;;;;5053133;28;20471;-60
2023/01/25 02:14:03;;;;;;;27.07;16.23;;;1.50;99.90;;;;;;5045943;28;20953;-61
2023/01/25 02:16:31;;;;;;;27.47;16.37;;;1.50;99.90;;;;;;5034266;28;20475;-61
2023/01/25 02:19:02;;;;;;;26.43;15.93;;;1.60;99.90;;;;;;5033243;28;20479;-61
2023/01/25 02:21:38;;;;;;;26.07;16.77;;;1.50;99.90;;;;;;5033064;28;20496;-61
2023/01/25 02:24:13;;;;;;;27.83;16.87;;;1.50;99.90;;;;;;5034763;28;20479;-61
2023/01/25 02:26:44;;;;;;;26.83;17.30;;;1.50;99.90;;;;;;5034228;28;20963;-61
2023/01/25 02:29:13;;;;;;;25.53;16.50;;;1.40;99.90;;;;;;5043541;28;20862;-61
2023/01/25 02:31:44;;;;;;;26.67;17.30;;;1.50;99.90;;;;;;5040691;28;20474;-60
2023/01/25 02:34:12;;;;;;;28.70;17.67;;;1.50;99.90;;;;;;5042285;28;20456;-61
2023/01/25 02:36:40;;;;;;;25.73;16.40;;;1.50;99.90;;;;;;5050088;28;20498;-60
2023/01/25 02:39:12;;;;;;;25.33;16.27;;;1.50;99.90;;;;;;5053987;28;20467;-61
2023/01/25 02:41:44;;;;;;;25.97;17.53;;;1.50;99.90;;;;;;5042378;28;20471;-61
2023/01/25 02:44:16;;;;;;;23.80;15.23;;;1.40;99.90;;;;;;5032689;28;20477;-61
2023/01/25 02:46:45;;;;;;;26.67;16.27;;;1.40;99.90;;;;;;5032447;28;20883;-61
2023/01/25 02:49:15;;;;;;;25.87;16.37;;;1.40;99.90;;;;;;5032566;28;20495;-61
2023/01/25 02:51:47;;;;;;;23.63;15.83;;;1.40;99.90;;;;;;5033786;28;20508;-60
2023/01/25 02:54:17;;;;;;;24.93;15.97;;;1.40;99.90;;;;;;5032563;28;20492;-61
2023/01/25 02:56:47;;;;;;;23.77;15.30;;;1.40;99.90;;;;;;5033926;28;20464;-61
2023/01/25 02:59:15;;;;;;;24.30;16.07;;;1.40;99.90;;;;;;5044747;28;21056;-61
2023/01/25 03:01:48;;;;;;;23.20;15.00;;;1.40;99.90;;;;;;5042862;28;20473;-61
2023/01/25 03:04:16;;;;;;;21.43;14.77;;;1.40;99.90;;;;;;5040223;28;20496;-61
2023/01/25 03:06:44;;;;;;;22.53;14.90;;;1.30;99.90;;;;;;5048679;28;20481;-60
2023/01/25 03:09:12;;;;;;;22.63;15.40;;;1.30;99.90;;;;;;5052962;28;20484;-61
2023/01/25 03:11:46;;;;;;;19.40;14.23;;;1.30;99.90;;;;;;5051953;28;21067;-60
2023/01/25 03:14:15;;;;;;;20.27;14.23;;;1.20;99.90;;;;;;5045333;28;20464;-61
2023/01/25 03:16:43;;;;;;;19.03;14.33;;;1.20;99.90;;;;;;5034533;28;20471;-61
2023/01/25 03:19:12;;;;;;;21.00;15.07;;;1.30;99.90;;;;;;5032077;28;20975;-61
2023/01/25 03:21:41;;;;;;;20.93;15.20;;;1.30;99.90;;;;;;5033154;28;20463;-61
2023/01/25 03:24:10;;;;;;;21.93;15.50;;;1.20;99.90;;;;;;5033322;28;20468;-61
2023/01/25 03:29:46;;;;;;;19.77;15.07;;;1.20;99.90;;;;;;5043485;28;21000;-60
2023/01/25 03:32:19;;;;;;;19.17;15.00;;;1.20;99.90;;;;;;5039763;28;20536;-61
2023/01/25 03:34:48;;;;;;;18.23;13.83;;;1.10;99.90;;;;;;5043218;28;20521;-61
2023/01/25 03:37:18;;;;;;;20.43;15.20;;;1.10;99.90;;;;;;5051695;28;20497;-61
2023/01/25 03:39:48;;;;;;;19.27;14.60;;;1.10;99.90;;;;;;5051491;28;20512;-60
2023/01/25 03:42:20;;;;;;;20.33;14.80;;;1.10;99.90;;;;;;5053172;28;20467;-60
2023/01/25 03:44:53;;;;;;;21.27;15.27;;;1.20;99.90;;;;;;5035464;28;20480;-61
2023/01/25 03:47:21;;;;;;;19.53;14.87;;;1.20;99.90;;;;;;5032986;28;20499;-61
2023/01/25 03:49:51;;;;;;;18.63;15.00;;;1.20;99.90;;;;;;5031489;28;20543;-60
2023/01/25 03:52:19;;;;;;;19.80;14.03;;;1.20;99.90;;;;;;5031673;28;20464;-61
2023/01/25 03:54:48;;;;;;;19.03;15.00;;;1.10;99.90;;;;;;5031006;28;20484;-61
2023/01/25 03:57:16;;;;;;;19.40;14.90;;;1.10;99.90;;;;;;5031135;28;20498;-61
2023/01/25 03:59:52;;;;;;;20.40;15.67;;;1.10;99.90;;;;;;5046061;28;20462;-61
2023/01/25 04:02:20;;;;;;;19.43;15.47;;;1.10;99.90;;;;;;5039489;28;20480;-61
2023/01/25 04:04:49;;;;;;;20.13;15.60;;;1.10;99.90;;;;;;5042781;28;20479;-61
2023/01/25 04:07:19;;;;;;;19.53;15.27;;;1.10;99.90;;;;;;5036287;28;20886;-61
2023/01/25 04:09:49;;;;;;;18.50;14.60;;;1.00;99.90;;;;;;5031228;28;20479;-60
2023/01/25 04:12:17;;;;;;;17.50;14.03;;;1.00;99.90;;;;;;5031389;28;20463;-60
2023/01/25 04:14:46;;;;;;;20.00;15.43;;;1.20;99.90;;;;;;5030983;28;20470;-60
2023/01/25 04:17:22;;;;;;;19.60;15.00;;;1.20;99.90;;;;;;5031394;28;20470;-61
2023/01/25 04:20:03;;;;;;;20.37;15.33;;;1.20;99.90;;;;;;5031239;28;20463;-61
2023/01/25 04:22:38;;;;;;;18.07;14.70;;;1.20;99.90;;;;;;5030992;28;20477;-61
2023/01/25 04:25:07;;;;;;;18.23;14.33;;;1.20;99.90;;;;;;5031164;28;20566;-60
2023/01/25 04:27:40;;;;;;;20.00;15.37;;;1.30;99.90;;;;;;5031065;28;20614;-60
2023/01/25 04:30:13;;;;;;;20.60;14.63;;;1.30;99.90;;;;;;5057005;28;20491;-61
2023/01/25 04:32:44;;;;;;;15.93;12.70;;;1.20;99.90;;;;;;5039299;28;20558;-60
2023/01/25 04:35:20;;;;;;;20.87;15.93;;;1.30;99.90;;;;;;5049404;28;20478;-61
2023/01/25 04:37:53;;;;;;;19.00;14.43;;;1.30;99.90;;;;;;5051055;28;20977;-60
2023/01/25 04:40:24;;;;;;;19.37;15.20;;;1.40;99.90;;;;;;5051220;28;20463;-61
2023/01/25 04:42:52;;;;;;;18.57;14.77;;;1.20;99.90;;;;;;5050959;28;20827;-61
2023/01/25 04:45:20;;;;;;;17.47;14.03;;;1.20;99.90;;;;;;5050987;28;20522;-61
2023/01/25 04:47:49;;;;;;;20.03;14.77;;;1.20;99.90;;;;;;5050871;28;20835;-61
2023/01/25 04:50:18;;;;;;;16.17;13.60;;;1.20;99.90;;;;;;5041289;28;20487;-61
2023/01/25 04:52:46;;;;;;;18.37;14.50;;;1.10;99.90;;;;;;5031011;28;20474;-61
2023/01/25 04:55:14;;;;;;;17.23;13.63;;;1.10;99.90;;;;;;5014814;28;20495;-60
2023/01/25 04:57:44;;;;;;;17.30;13.97;;;1.10;99.90;;;;;;5033988;28;20463;-61
2023/01/25 05:00:12;;;;;;;19.77;14.63;;;1.10;99.90;;;;;;5051156;28;20471;-61
2023/01/25 05:02:40;;;;;;;17.23;13.63;;;1.10;99.90;;;;;;5040283;28;20884;-61
2023/01/25 05:05:10;;;;;;;18.37;15.13;;;1.20;99.90;;;;;;5043602;28;20454;-61
2023/01/25 05:07:39;;;;;;;18.30;14.73;;;1.10;99.90;;;;;;5050826;28;20477;-60
2023/01/25 05:10:10;;;;;;;18.23;15.20;;;1.30;99.90;;;;;;5043630;28;20491;-61
2023/01/25 05:12:46;;;;;;;17.03;13.57;;;1.20;99.90;;;;;;5029588;28;20475;-61
2023/01/25 05:15:15;;;;;;;18.87;14.20;;;1.20;99.90;;;;;;5030374;28;20463;-61
2023/01/25 05:17:43;;;;;;;18.07;14.57;;;1.10;99.90;;;;;;5032862;28;20464;-61
2023/01/25 05:20:13;;;;;;;17.83;13.87;;;1.10;99.90;;;;;;5030711;28;20517;-61
2023/01/25 05:22:41;;;;;;;18.20;13.83;;;1.10;99.90;;;;;;5030492;28;20464;-61
2023/01/25 05:26:59;;;;;;;17.67;14.00;;;1.10;99.90;;;;;;5030701;28;20476;-61
2023/01/25 05:27:57;;;;;;;20.70;14.83;;;1.10;99.90;;;;;;5034869;28;20463;-61
2023/01/25 05:30:49;;;;;;;19.10;14.60;;;1.10;99.90;;;;;;5045210;28;20470;-61
2023/01/25 05:33:23;;;;;;;19.00;14.37;;;1.10;99.90;;;;;;5054101;28;20462;-61
2023/01/25 05:35:55;;;;;;;16.90;13.80;;;1.00;99.90;;;;;;5045748;28;20463;-61
2023/01/25 05:38:24;;;;;;;20.23;15.17;;;1.00;99.90;;;;;;5054006;28;20829;-61
2023/01/25 05:40:52;;;;;;;20.47;15.73;;;1.00;99.90;;;;;;5055194;28;20451;-61
2023/01/25 05:43:22;;;;;;;18.20;14.20;;;1.00;99.90;;;;;;5038143;28;20459;-61
2023/01/25 05:45:52;;;;;;;20.33;15.43;;;1.00;99.90;;;;;;5035013;28;20472;-60
2023/01/25 05:48:21;;;;;;;20.37;16.00;;;1.00;99.90;;;;;;5033730;28;20529;-60
2023/01/25 05:50:49;;;;;;;19.60;15.20;;;1.00;99.90;;;;;;5033552;28;20495;-61
2023/01/25 05:53:26;;;;;;;19.77;15.23;;;1.10;99.90;;;;;;5050392;28;20472;-61
2023/01/25 05:55:54;;;;;;;23.00;17.00;;;1.00;99.90;;;;;;5033850;28;20491;-61
2023/01/25 05:58:22;;;;;;;20.03;15.27;;;1.00;99.90;;;;;;5055519;28;20481;-61
2023/01/25 06:00:50;;;;;;;23.93;17.53;;;1.10;99.90;;;;;;5036969;28;20484;-61
2023/01/25 06:03:33;;;;;;;22.33;16.27;;;1.00;99.90;;;;;;5045064;28;20520;-61
2023/01/25 06:06:02;;;;;;;22.97;17.17;;;1.00;99.90;;;;;;5039635;28;20467;-61
2023/01/25 06:08:33;;;;;;;21.43;16.23;;;1.00;99.90;;;;;;5033103;28;20970;-60
2023/01/25 06:11:06;;;;;;;22.50;16.77;;;1.00;99.90;;;;;;5032747;28;20506;-60
2023/01/25 06:13:35;;;;;;;24.53;17.03;;;1.00;99.90;;;;;;5032788;28;20472;-60
2023/01/25 06:16:04;;;;;;;24.97;18.67;;;1.00;99.90;;;;;;5033348;28;20480;-61
2023/01/25 06:18:42;;;;;;;25.33;18.90;;;1.00;99.90;;;;;;5034322;28;20459;-61
2023/01/25 06:21:20;;;;;;;22.97;17.43;;;0.90;99.90;;;;;;5048266;28;20575;-60
2023/01/25 06:23:49;;;;;;;23.07;17.23;;;0.90;99.90;;;;;;5034424;28;20475;-61
2023/01/25 06:26:18;;;;;;;27.13;20.07;;;0.90;99.90;;;;;;5034423;28;20456;-61
2023/01/25 06:28:46;;;;;;;24.27;18.27;;;0.90;99.90;;;;;;5042381;28;20474;-61
2023/01/25 06:31:15;;;;;;;27.80;21.17;;;1.00;99.90;;;;;;5046320;28;20506;-61
2023/01/25 06:33:47;;;;;;;27.20;19.67;;;0.90;99.90;;;;;;5047768;28;20462;-61
2023/01/25 06:36:17;;;;;;;26.77;20.23;;;0.90;99.90;;;;;;5045522;28;20506;-61
2023/01/25 06:38:50;;;;;;;29.00;20.03;;;1.00;99.90;;;;;;5053894;28;20467;-61
2023/01/25 06:41:19;;;;;;;26.47;19.23;;;1.00;99.90;;;;;;5031881;28;20464;-61
2023/01/25 06:43:50;;;;;;;25.53;19.27;;;0.90;99.90;;;;;;5033755;28;20475;-61
2023/01/25 06:46:19;;;;;;;27.83;20.60;;;1.00;99.90;;;;;;5034362;28;20475;-61
2023/01/25 06:48:47;;;;;;;28.40;19.27;;;1.00;99.90;;;;;;5033535;28;20575;-61
2023/01/25 06:51:16;;;;;;;30.50;21.60;;;0.90;99.90;;;;;;5034136;28;20831;-61
2023/01/25 06:53:46;;;;;;;26.57;19.33;;;0.90;99.90;;;;;;5032955;28;20467;-61
2023/01/25 06:56:17;;;;;;;30.10;22.10;;;0.90;99.90;;;;;;5033359;28;20463;-60
2023/01/25 06:58:46;;;;;;;30.13;20.93;;;0.90;99.90;;;;;;5031373;28;21026;-60
2023/01/25 07:01:18;;;;;;;30.93;21.67;;;0.90;99.90;;;;;;5035431;28;20844;-61
2023/01/25 07:03:48;;;;;;;30.13;21.63;;;0.90;99.90;;;;;;5046439;28;20470;-61
2023/01/25 07:06:16;;;;;;;31.03;23.20;;;0.90;99.90;;;;;;5046586;28;20471;-61
2023/01/25 07:08:45;;;;;;;29.47;22.20;;;0.90;99.90;;;;;;5041968;28;20466;-61
2023/01/25 07:11:17;;;;;;;29.20;21.23;;;0.90;99.90;;;;;;5037385;28;20471;-60
2023/01/25 07:13:47;;;;;;;30.43;20.83;;;0.90;99.90;;;;;;5034182;28;20475;-61
2023/01/25 07:16:17;;;;;;;32.50;22.93;;;1.00;99.90;;;;;;5033475;28;20820;-61
2023/01/25 07:18:45;;;;;;;33.00;22.03;;;0.90;99.90;;;;;;5033433;28;20479;-61
2023/01/25 07:21:15;;;;;;;33.67;23.40;;;0.90;99.90;;;;;;5033034;28;20463;-61
2023/01/25 07:23:44;;;;;;;33.97;23.60;;;1.00;99.90;;;;;;5033204;28;20471;-61
2023/01/25 07:26:17;;;;;;;35.00;24.23;;;1.00;99.90;;;;;;5033531;28;20847;-61
2023/01/25 07:28:46;;;;;;;33.07;23.43;;;1.00;99.90;;;;;;5045043;28;20504;-61
2023/01/25 07:31:14;;;;;;;33.83;24.60;;;1.00;99.90;;;;;;5045239;28;21005;-61
2023/01/25 07:33:43;;;;;;;37.70;26.27;;;1.00;99.90;;;;;;5038099;28;20469;-61
2023/01/25 07:36:11;;;;;;;33.80;23.50;;;1.00;99.90;;;;;;5030879;28;20469;-61
2023/01/25 07:38:39;;;;;;;34.43;24.97;;;1.00;99.90;;;;;;5031484;28;20942;-61
2023/01/25 07:41:07;;;;;;;36.60;25.50;;;1.10;99.90;;;;;;5032946;28;20551;-61
2023/01/25 07:43:37;;;;;;;38.37;25.73;;;1.00;99.90;;;;;;5032850;28;20485;-60
2023/01/25 07:46:10;;;;;;;36.57;26.33;;;1.10;99.90;;;;;;5031707;28;20474;-61
2023/01/25 07:48:38;;;;;;;37.83;26.27;;;1.10;99.90;;;;;;5033038;28;20814;-60
2023/01/25 07:51:21;;;;;;;42.30;28.60;;;1.10;99.90;;;;;;5032506;28;20467;-60
2023/01/25 07:53:51;;;;;;;41.10;28.40;;;1.10;99.90;;;;;;5032568;28;20455;-60
2023/01/25 07:56:20;;;;;;;44.33;29.20;;;1.10;99.90;;;;;;5032755;28;20824;-60
2023/01/25 07:58:49;;;;;;;42.93;28.43;;;1.10;99.90;;;;;;5044218;28;20819;-61
2023/01/25 08:01:19;;;;;;;40.47;27.93;;;1.00;99.90;;;;;;5045206;28;20479;-61
2023/01/25 08:03:48;;;;;;;41.47;28.50;;;1.00;99.90;;;;;;5049140;28;20483;-60
2023/01/25 08:06:16;;;;;;;39.47;27.07;;;1.00;99.90;;;;;;5049757;28;20471;-60
2023/01/25 08:08:47;;;;;;;44.30;31.40;;;1.00;99.90;;;;;;5033071;28;20478;-61
2023/01/25 08:11:19;;;;;;;42.23;28.37;;;1.00;99.90;;;;;;5032506;28;20459;-60
2023/01/25 08:13:49;;;;;;;41.23;27.40;;;1.00;99.90;;;;;;5032544;28;20800;-60
2023/01/25 08:16:19;;;;;;;44.97;30.60;;;1.10;99.90;;;;;;5032619;28;20460;-61
2023/01/25 08:18:47;;;;;;;43.93;29.57;;;1.10;99.90;;;;;;5032600;28;20477;-61
2023/01/25 08:21:16;;;;;;;44.63;30.30;;;1.20;99.90;;;;;;5032547;28;20463;-61
2023/01/25 08:23:44;;;;;;;48.23;31.47;;;1.20;99.90;;;;;;5031670;28;20466;-60
2023/01/25 08:26:14;;;;;;;48.30;31.50;;;1.00;99.90;;;;;;5032538;28;20886;-60
2023/01/25 08:28:42;;;;;;;52.07;33.10;;;1.00;99.90;;;;;;5033672;28;20478;-60
2023/01/25 08:31:13;;;;;;;46.00;29.57;;;1.00;99.90;;;;;;5035879;28;20479;-61
2023/01/25 08:33:44;;;;;;;52.50;33.50;;;0.90;99.90;;;;;;5046867;28;20486;-60
2023/01/25 08:36:13;;;;;;;48.27;31.97;;;1.00;99.90;;;;;;5036974;28;20463;-61
2023/01/25 08:38:41;;;;;;;51.57;31.97;;;1.00;99.90;;;;;;5052341;28;20472;-60
2023/01/25 08:41:12;;;;;;;45.90;30.77;;;1.10;99.90;;;;;;5041350;28;20464;-60
2023/01/25 08:43:40;;;;;;;48.03;30.83;;;1.10;99.90;;;;;;5032530;28;20460;-61
2023/01/25 08:46:08;;;;;;;49.50;30.90;;;1.10;99.90;;;;;;5032764;28;20455;-61
2023/01/25 08:48:38;;;;;;;50.27;30.17;;;1.10;99.90;;;;;;5032520;28;20960;-61
2023/01/25 08:51:08;;;;;;;48.53;30.73;;;1.00;99.90;;;;;;5032581;28;20824;-61
2023/01/25 08:53:36;;;;;;;47.10;30.97;;;1.10;99.90;;;;;;5032262;28;20494;-59
2023/01/25 08:56:05;;;;;;;47.53;30.20;;;1.00;99.90;;;;;;5032252;28;20468;-61
2023/01/25 08:58:34;;;;;;;47.50;30.67;;;1.00;99.90;;;;;;5035863;28;20797;-61
2023/01/25 09:01:03;;;;;;;48.37;31.37;;;1.00;99.90;;;;;;5032449;28;20495;-61
2023/01/25 09:03:32;;;;;;;49.83;32.57;;;1.00;99.90;;;;;;5047460;28;20494;-61
2023/01/25 09:06:01;;;;;;;49.00;31.77;;;1.00;99.90;;;;;;5039610;28;20479;-61
2023/01/25 09:08:29;;;;;;;50.90;33.27;;;0.90;99.90;;;;;;5035910;28;20832;-61
2023/01/25 09:11:01;;;;;;;53.23;34.30;;;0.90;99.90;;;;;;5036318;28;20843;-61
2023/01/25 09:13:29;;;;;;;55.97;33.80;;;0.90;99.90;;;;;;5036185;28;20500;-61
2023/01/25 09:16:01;;;;;;;52.60;30.50;;;1.00;99.90;;;;;;5035890;28;20478;-61
2023/01/25 09:18:30;;;;;;;46.20;28.23;;;1.00;99.90;;;;;;5035270;28;20466;-61
2023/01/25 09:20:58;;;;;;;47.57;30.97;;;1.10;99.90;;;;;;5036223;28;20467;-61
2023/01/25 09:23:27;;;;;;;50.83;32.00;;;1.10;99.90;;;;;;5035776;28;20470;-61
2023/01/25 09:26:01;;;;;;;46.73;29.93;;;1.10;99.90;;;;;;5036090;28;20451;-61
2023/01/25 09:28:30;;;;;;;48.20;30.00;;;1.10;99.90;;;;;;5048059;28;20866;-61
2023/01/25 09:31:00;;;;;;;46.40;29.77;;;1.00;99.90;;;;;;5044647;28;20815;-61
2023/01/25 09:34:07;;;;;;;48.50;30.17;;;1.00;99.90;;;;;;5048664;28;21056;-61
2023/01/25 09:36:36;;;;;;;48.93;30.20;;;1.00;99.90;;;;;;5051213;28;20795;-61
2023/01/25 09:39:05;;;;;;;49.53;31.60;;;1.10;99.90;;;;;;5035046;28;20487;-61
2023/01/25 09:41:50;;;;;;;47.33;30.10;;;1.10;99.90;;;;;;5035420;28;20459;-61
2023/01/25 09:44:38;;;;;;;49.97;30.03;;;1.00;99.90;;;;;;5035775;28;20487;-61
2023/01/25 09:47:14;;;;;;;47.63;30.73;;;1.00;99.90;;;;;;5035419;28;20478;-61
2023/01/25 09:49:58;;;;;;;50.33;30.10;;;1.00;99.90;;;;;;5015390;28;20464;-61
2023/01/25 09:52:49;;;;;;;47.80;30.03;;;1.00;99.90;;;;;;5015172;28;20465;-60
2023/01/25 09:55:22;;;;;;;49.70;30.30;;;1.10;99.90;;;;;;5015484;28;20492;-61
2023/01/25 09:57:54;;;;;;;50.50;31.43;;;1.00;99.90;;;;;;5024303;28;20495;-61
2023/01/25 10:00:28;;;;;;;45.83;29.77;;;1.00;99.90;;;;;;5041619;28;20470;-60
2023/01/25 10:03:01;;;;;;;46.77;29.13;;;1.10;99.90;;;;;;5036564;28;20476;-61
2023/01/25 10:05:37;;;;;;;49.33;29.40;;;1.10;99.90;;;;;;5046706;28;20810;-61
2023/01/25 10:08:13;;;;;;;45.07;28.67;;;1.10;99.90;;;;;;5048424;28;20471;-61
2023/01/25 10:10:47;;;;;;;47.83;29.60;;;1.00;99.90;;;;;;5035002;28;20854;-61
2023/01/25 10:13:21;;;;;;;44.63;27.40;;;1.00;99.90;;;;;;5034118;28;20494;-61
2023/01/25 10:15:52;;;;;;;44.77;28.40;;;1.00;99.90;;;;;;5034504;28;20471;-61
2023/01/25 10:18:27;;;;;;;43.57;28.83;;;1.00;99.90;;;;;;5034819;28;20585;-61
2023/01/25 10:20:58;;;;;;;45.93;29.00;;;1.00;99.90;;;;;;5035003;28;20954;-61
2023/01/25 10:23:40;;;;;;;45.53;29.43;;;1.00;99.90;;;;;;5034636;28;20470;-61
2023/01/25 10:26:15;;;;;;;46.97;29.27;;;0.90;99.90;;;;;;5034490;28;20510;-62
2023/01/25 10:28:51;;;;;;;45.23;29.03;;;1.00;99.90;;;;;;5045741;28;20463;-61
2023/01/25 10:31:24;;;;;;;45.20;28.97;;;1.00;99.90;;;;;;5040698;28;20489;-61
2023/01/25 10:33:56;;;;;;;46.97;30.13;;;0.90;99.90;;;;;;5048070;28;20981;-61
2023/01/25 10:36:29;;;;;;;44.50;27.93;;;0.90;99.90;;;;;;5048282;28;20474;-61
2023/01/25 10:38:59;;;;;;;42.97;27.67;;;1.00;99.90;;;;;;5036453;28;20468;-61
2023/01/25 10:41:36;;;;;;;44.47;29.23;;;1.00;99.90;;;;;;5034385;28;20466;-61
2023/01/25 10:44:23;;;;;;;48.57;29.53;;;0.90;99.90;;;;;;5034556;28;20495;-61
2023/01/25 10:46:57;;;;;;;47.43;29.57;;;1.00;99.90;;;;;;5034772;28;20502;-61
2023/01/25 10:49:33;;;;;;;46.20;29.53;;;1.00;99.90;;;;;;5034269;28;20477;-61
2023/01/25 10:52:14;;;;;;;43.27;27.90;;;0.90;99.90;;;;;;5034618;28;20459;-61
2023/01/25 10:54:42;;;;;;;45.27;28.90;;;0.80;99.90;;;;;;5034014;28;20484;-61
2023/01/25 10:57:17;;;;;;;47.33;29.43;;;0.80;99.90;;;;;;5034288;28;20467;-61
2023/01/25 10:59:46;;;;;;;46.27;28.90;;;0.70;99.90;;;;;;5039089;28;20963;-61
2023/01/25 11:02:38;;;;;;;51.27;29.90;;;0.80;99.90;;;;;;5045306;28;20999;-61
2023/01/25 11:05:25;;;;;;;46.73;29.20;;;0.80;99.90;;;;;;5045516;28;20460;-61
2023/01/25 11:07:54;;;;;;;49.70;29.43;;;0.80;99.90;;;;;;5054410;28;20463;-61
2023/01/25 11:10:29;;;;;;;47.10;28.70;;;0.90;99.90;;;;;;5053867;28;20451;-61
2023/01/25 11:13:25;;;;;;;48.87;29.07;;;1.00;99.90;;;;;;5052447;28;20485;-61
2023/01/25 11:15:55;;;;;;;48.33;30.63;;;1.00;99.90;;;;;;5042101;28;20490;-61
2023/01/25 11:18:27;;;;;;;47.67;29.20;;;1.10;99.90;;;;;;5032925;28;20471;-61
2023/01/25 11:21:05;;;;;;;47.90;29.67;;;1.20;99.90;;;;;;5033591;28;20556;-61
2023/01/25 11:23:33;;;;;;;52.60;32.93;;;1.10;99.90;;;;;;5050901;28;20946;-61
2023/01/25 11:26:13;;;;;;;49.00;31.07;;;1.00;99.90;;;;;;5052676;28;20466;-61
2023/01/25 11:28:44;;;;;;;51.97;30.70;;;0.90;99.90;;;;;;5048474;28;20981;-61
2023/01/25 11:31:14;;;;;;;51.73;31.77;;;0.90;99.90;;;;;;5037687;28;20466;-61
2023/01/25 11:33:42;;;;;;;47.87;30.17;;;0.80;99.90;;;;;;5048427;28;20474;-61
2023/01/25 11:36:19;;;;;;;52.50;32.03;;;0.90;99.90;;;;;;5034340;28;20475;-61
2023/01/25 11:39:00;;;;;;;52.43;31.80;;;1.00;99.90;;;;;;5031788;28;20479;-61
2023/01/25 11:41:39;;;;;;;47.77;29.57;;;1.00;99.90;;;;;;5013665;28;20971;-60
2023/01/25 11:44:37;;;;;;;47.97;28.23;;;0.90;99.90;;;;;;5013486;28;20476;-61
2023/01/25 11:47:17;;;;;;;47.70;28.90;;;0.90;99.90;;;;;;5032306;28;20471;-61
2023/01/25 11:49:57;;;;;;;46.53;27.90;;;0.90;99.90;;;;;;5033642;28;20963;-61
2023/01/25 11:52:35;;;;;;;44.73;28.83;;;0.90;99.90;;;;;;5027231;28;20467;-61
2023/01/25 11:55:16;;;;;;;47.57;29.10;;;0.90;99.90;;;;;;5032327;28;20483;-61
2023/01/25 11:58:03;;;;;;;46.63;29.47;;;1.00;99.90;;;;;;5033175;28;20949;-61
2023/01/25 12:01:05;;;;;;;49.30;30.40;;;0.90;99.90;;;;;;5044052;28;20971;-61
2023/01/25 12:03:53;;;;;;;49.50;30.17;;;1.00;99.90;;;;;;5017527;28;20839;-61
2023/01/25 12:06:28;;;;;;;52.03;31.83;;;1.00;99.90;;;;;;5029121;28;20476;-61
2023/01/25 12:09:21;;;;;;;51.70;31.50;;;1.00;99.90;;;;;;5030986;28;20475;-61
2023/01/25 12:12:16;;;;;;;53.03;33.00;;;1.10;99.90;;;;;;5030013;28;20465;-61
2023/01/25 12:15:02;;;;;;;50.67;31.97;;;0.90;99.90;;;;;;5031787;28;20868;-61
2023/01/25 12:17:48;;;;;;;51.03;31.63;;;0.90;99.90;;;;;;5031373;28;20463;-61
2023/01/25 12:20:32;;;;;;;54.77;33.03;;;0.90;99.90;;;;;;5030512;28;20471;-61
2023/01/25 12:23:19;;;;;;;50.63;30.43;;;0.90;99.90;;;;;;5031252;28;20549;-61
2023/01/25 12:25:58;;;;;;;51.10;32.13;;;1.00;99.90;;;;;;5032335;28;20475;-61
2023/01/25 12:28:33;;;;;;;51.53;32.83;;;1.10;99.90;;;;;;5032618;28;20820;-61
2023/01/25 12:31:08;;;;;;;54.57;33.10;;;1.10;99.90;;;;;;5031646;28;21001;-61
2023/01/25 12:33:41;;;;;;;57.80;34.40;;;1.10;99.90;;;;;;5033448;28;20521;-61
2023/01/25 12:36:14;;;;;;;55.90;33.93;;;1.00;99.90;;;;;;5033918;28;20470;-61
2023/01/25 12:38:48;;;;;;;54.07;34.77;;;1.00;99.90;;;;;;5036290;28;20479;-61
2023/01/25 12:41:28;;;;;;;57.53;34.07;;;0.90;99.90;;;;;;5034538;28;20554;-61
2023/01/25 12:44:03;;;;;;;53.93;32.60;;;0.90;99.90;;;;;;5033075;28;20460;-61
2023/01/25 12:46:38;;;;;;;60.17;35.57;;;0.80;99.90;;;;;;5032747;28;20558;-61
2023/01/25 12:49:18;;;;;;;57.23;34.97;;;0.70;99.90;;;;;;5033308;28;20466;-61
2023/01/25 12:51:47;;;;;;;56.70;34.13;;;0.80;99.90;;;;;;5037025;28;20851;-61
2023/01/25 12:54:23;;;;;;;56.77;35.03;;;0.80;99.90;;;;;;5035916;28;20515;-61
2023/01/25 12:56:58;;;;;;;62.07;36.47;;;0.80;99.90;;;;;;5036153;28;20554;-61
2023/01/25 12:59:33;;;;;;;58.60;35.43;;;0.80;99.90;;;;;;5047773;28;20470;-61
2023/01/25 13:02:14;;;;;;;54.83;32.70;;;0.80;99.90;;;;;;5053252;28;20485;-60
2023/01/25 13:04:59;;;;;;;61.37;36.13;;;0.90;99.90;;;;;;5040942;28;21027;-61